ZTL Weather Bulletin
Prepared:5/27/2016 5:49 PM by: MW valid for 9 hours
FOR ATC PLANNING PURPOSES
Isolated showers over GA will diminish by 13-14z, leaving the airspace rain- free through at least 16z. Isolated showers and thunderstorms are then possible over North and West ZTL thereafter. Outside of convection, expect VFR conditions under developing FEW/SCT050-090 clouds. Surface winds will be variable and nearly calm to start, but otherwise mostly southwest to southeast at 4-9kts. Flight Hazards outside convection: LGT-MOD turbulence above FL260 over W ZTL. Altimeters will remain above 29.92ins. Ceilings below 050 are not expected outside of convection.

Restricted Area Convection: R2102...After 19z. R3002...None. R3004...None.
FTUS80 KATL 271600 AAA
KATL 271559Z 2716/2818 13008KT P6SM BKN050 BKN070
     FM280000 13007KT P6SM FEW050 SCT250
     FM281100 11007KT 6SM HZ FEW050 SCT250
     FM281300 09008KT P6SM FEW050 SCT250
     FM281600 11008KT P6SM SCT045 SCT250
Remark: HAZE EXPECTED E/W BETWEEN 11 TO 13Z.
FTUS80 KCLT 271439 AAA
KCLT 271438Z 2715/2812 24006KT P6SM FEW060 SCT250
     FM280300 15003KT P6SM FEW250

Remark: NONE.
12-18 Hour Forecast Map
Weather Map
Convective Gate Forecast
Convective Gate Forecast
Icing Gate Forecast Icing Gate Forecast

ATL products

TDA
TRACON BRF

Convection Gate FCST

Vertical Wind Profile (RAP)

Icing Gate FCST
Atlanta Observations
 

CLT products

TDA

TRACON BRF

Convection Gate FCST

Vertical Wind Profile (RAP)

Icing Gate FCST
Charlotte Observations



USA.gov is the U.S. government's official web portal to all federal, state and local government web resources and services.